Aérodrome :
LOGIN :

S'inscrire | Disclaimer

   EN    FR    IT 

 










Légende :    VFR   VFR Marginal   IFR   IFR Intensif   IFR Très Intensif
Visi : 
Plafond : 
>= 8 km
>= 3000ft
5 à 8 km
1000 à 3000 ft
1500m à 5 km
500 à 1000 ft
800 à 1500m
200 à 500 ft
< 800m
< 200 ft
Symboles :   Orages  Brouillard  Fortes neiges  Fortes précipitations  Vent > 20 kt
SIGMETs :   Divers  Orages  Givrage  Turbulence  Onde Orograph.  Cendres Volcan.







- Altitude de l'aérodrome : 17 ft
- Code IATA : GRQ


EHGG - Groningen Eelde

DERNIER METAR :
  • 250425Z AUTO 23020KT 200V270 9999 FEW009 SCT011 BKN013 12/10 Q1002 BECMG 28022G32KT TEMPO BKN008

METARs EXPIRÉS :
  • 250355Z AUTO 24017KT 210V270 9999 FEW007 SCT008 BKN010 FEW015CB 12/11 Q1002 REDZ
  • 250325Z AUTO 24019KT 9999 -RA FEW010 BKN012 OVC015 12/11 Q1002
  • 250255Z AUTO 24020KT 210V270 5000 -RA FEW009 SCT011 BKN014 FEW015CB 12/11 Q1002 RERA REDZ
  • 250225Z AUTO 24019KT 210V270 9999 DZRA FEW008 BKN013 BKN015CB 13/11 Q1003
  • 250155Z AUTO 24018KT 210V290 9999 -DZ FEW012 FEW015CB SCT016 BKN019 13/11 Q1003 REDZ

TAF TAF EHGG
Valide du 25 à 00h jusqu'au 26 à 06h UTC


242304Z 2500/2606 24017G27KT 9999 BKN018
TEMPO 2500/2505 4000 RADZ BKN007
BECMG 2504/2507 27012G22KT
PROB30 2505/2510 BKN007
TEMPO 2512/2518 6000 SHRA SCT020CB BKN025
BECMG 2517/2520 22005KT
PROB30
TEMPO 2518/2602 6000 SHRA BKN012 SCT030CB
PROB30 2602/2606 5000 BR BKN010
Pas de NOTAMs connus pour ce terrain.



MET'MAP, la Météo Aéronautique d'un coup d'oeil ! - Copyright ORBIFLY Décembre 2007 - Disclaimer

ORBIFLY MET'MAP TEAM :

Programmation & Développement : Alexandra Zaïnal
Conception & Développement : Baudouin d'Aumeries
Co-Programmation & Développement : Marc-Olivier Méhu
Soutien technique & logistique : Manuel Goepfert

Contact : metmap@orbifly.com




SOURCES & CREDITS :

   NOAA